sensor_id;sensor_type;location;lat;lon;timestamp;P1;durP1;ratioP1;P2;durP2;ratioP2
37805;SDS011;25082;50.870;0.022;2022-09-13T00:00:33;3.55;;;2.42;;
37805;SDS011;25082;50.870;0.022;2022-09-13T00:02:59;4.05;;;2.40;;
37805;SDS011;25082;50.870;0.022;2022-09-13T00:05:25;5.82;;;2.20;;
37805;SDS011;25082;50.870;0.022;2022-09-13T00:07:52;5.35;;;2.80;;
37805;SDS011;25082;50.870;0.022;2022-09-13T00:10:18;2.97;;;2.20;;
37805;SDS011;25082;50.870;0.022;2022-09-13T00:12:43;2.65;;;2.08;;
37805;SDS011;25082;50.870;0.022;2022-09-13T00:15:09;2.95;;;2.25;;
37805;SDS011;25082;50.870;0.022;2022-09-13T00:17:36;4.03;;;2.55;;
37805;SDS011;25082;50.870;0.022;2022-09-13T00:20:02;3.63;;;2.35;;
37805;SDS011;25082;50.870;0.022;2022-09-13T00:22:28;3.55;;;2.20;;
37805;SDS011;25082;50.870;0.022;2022-09-13T00:24:54;4.65;;;2.38;;
37805;SDS011;25082;50.870;0.022;2022-09-13T00:27:20;3.65;;;2.45;;
37805;SDS011;25082;50.870;0.022;2022-09-13T00:29:46;3.03;;;2.33;;
37805;SDS011;25082;50.870;0.022;2022-09-13T00:32:12;3.10;;;2.20;;
37805;SDS011;25082;50.870;0.022;2022-09-13T00:34:37;4.72;;;2.25;;
37805;SDS011;25082;50.870;0.022;2022-09-13T00:37:03;4.57;;;2.42;;
37805;SDS011;25082;50.870;0.022;2022-09-13T00:39:29;4.03;;;2.67;;
37805;SDS011;25082;50.870;0.022;2022-09-13T00:41:55;2.58;;;2.17;;
37805;SDS011;25082;50.870;0.022;2022-09-13T00:47:15;3.47;;;2.35;;
37805;SDS011;25082;50.870;0.022;2022-09-13T00:49:49;3.42;;;2.30;;
37805;SDS011;25082;50.870;0.022;2022-09-13T00:52:19;3.88;;;2.45;;
37805;SDS011;25082;50.870;0.022;2022-09-13T00:54:55;5.18;;;2.50;;
37805;SDS011;25082;50.870;0.022;2022-09-13T00:57:26;3.38;;;2.30;;
37805;SDS011;25082;50.870;0.022;2022-09-13T00:59:59;3.22;;;2.05;;
37805;SDS011;25082;50.870;0.022;2022-09-13T01:02:51;3.15;;;2.20;;
37805;SDS011;25082;50.870;0.022;2022-09-13T01:05:23;2.35;;;2.08;;
37805;SDS011;25082;50.870;0.022;2022-09-13T01:07:52;3.53;;;2.42;;
37805;SDS011;25082;50.870;0.022;2022-09-13T01:10:19;3.55;;;2.22;;
37805;SDS011;25082;50.870;0.022;2022-09-13T01:13:00;4.55;;;2.47;;
37805;SDS011;25082;50.870;0.022;2022-09-13T01:15:38;3.42;;;2.40;;
37805;SDS011;25082;50.870;0.022;2022-09-13T01:18:07;4.28;;;2.17;;
37805;SDS011;25082;50.870;0.022;2022-09-13T01:40:03;4.20;;;2.33;;
37805;SDS011;25082;50.870;0.022;2022-09-13T01:42:46;4.47;;;2.63;;
37805;SDS011;25082;50.870;0.022;2022-09-13T01:48:22;4.22;;;2.17;;
37805;SDS011;25082;50.870;0.022;2022-09-13T01:51:12;6.85;;;2.50;;
37805;SDS011;25082;50.870;0.022;2022-09-13T01:53:57;4.10;;;2.28;;
37805;SDS011;25082;50.870;0.022;2022-09-13T01:56:34;2.72;;;2.00;;
37805;SDS011;25082;50.870;0.022;2022-09-13T02:04:36;3.38;;;2.10;;
37805;SDS011;25082;50.870;0.022;2022-09-13T02:07:26;5.38;;;2.65;;
37805;SDS011;25082;50.870;0.022;2022-09-13T02:09:59;5.15;;;2.60;;
37805;SDS011;25082;50.870;0.022;2022-09-13T02:12:31;4.18;;;2.65;;
37805;SDS011;25082;50.870;0.022;2022-09-13T02:15:21;3.97;;;2.95;;
37805;SDS011;25082;50.870;0.022;2022-09-13T02:18:02;5.15;;;2.72;;
37805;SDS011;25082;50.870;0.022;2022-09-13T02:20:34;5.53;;;2.22;;
37805;SDS011;25082;50.870;0.022;2022-09-13T02:23:11;5.43;;;2.17;;
37805;SDS011;25082;50.870;0.022;2022-09-13T02:25:40;3.20;;;2.20;;
37805;SDS011;25082;50.870;0.022;2022-09-13T02:28:08;4.22;;;2.20;;
37805;SDS011;25082;50.870;0.022;2022-09-13T02:30:37;3.53;;;2.22;;
37805;SDS011;25082;50.870;0.022;2022-09-13T02:33:11;7.33;;;2.70;;
37805;SDS011;25082;50.870;0.022;2022-09-13T02:35:54;3.10;;;1.90;;
37805;SDS011;25082;50.870;0.022;2022-09-13T02:41:04;2.80;;;2.20;;
37805;SDS011;25082;50.870;0.022;2022-09-13T02:43:40;4.40;;;2.50;;
37805;SDS011;25082;50.870;0.022;2022-09-13T02:48:56;4.05;;;1.98;;
37805;SDS011;25082;50.870;0.022;2022-09-13T02:54:28;5.20;;;2.65;;
37805;SDS011;25082;50.870;0.022;2022-09-13T02:59:31;2.35;;;2.03;;
37805;SDS011;25082;50.870;0.022;2022-09-13T03:04:27;5.82;;;2.58;;
37805;SDS011;25082;50.870;0.022;2022-09-13T03:06:53;3.30;;;2.17;;
37805;SDS011;25082;50.870;0.022;2022-09-13T03:09:18;2.67;;;2.35;;
37805;SDS011;25082;50.870;0.022;2022-09-13T03:14:27;3.40;;;2.30;;
37805;SDS011;25082;50.870;0.022;2022-09-13T03:25:41;3.75;;;2.45;;
37805;SDS011;25082;50.870;0.022;2022-09-13T03:31:14;4.38;;;2.47;;
37805;SDS011;25082;50.870;0.022;2022-09-13T03:33:57;5.28;;;2.40;;
37805;SDS011;25082;50.870;0.022;2022-09-13T03:36:44;7.25;;;2.22;;
37805;SDS011;25082;50.870;0.022;2022-09-13T03:39:21;3.58;;;2.63;;
37805;SDS011;25082;50.870;0.022;2022-09-13T03:42:03;4.55;;;2.65;;
37805;SDS011;25082;50.870;0.022;2022-09-13T03:44:37;7.90;;;2.88;;
37805;SDS011;25082;50.870;0.022;2022-09-13T03:47:05;4.63;;;2.17;;
37805;SDS011;25082;50.870;0.022;2022-09-13T03:49:32;4.38;;;2.70;;
37805;SDS011;25082;50.870;0.022;2022-09-13T03:51:58;3.72;;;2.25;;
37805;SDS011;25082;50.870;0.022;2022-09-13T03:54:26;6.47;;;2.45;;
37805;SDS011;25082;50.870;0.022;2022-09-13T03:57:05;5.05;;;2.10;;
37805;SDS011;25082;50.870;0.022;2022-09-13T03:59:37;5.05;;;2.70;;
37805;SDS011;25082;50.870;0.022;2022-09-13T04:02:06;4.45;;;2.60;;
37805;SDS011;25082;50.870;0.022;2022-09-13T04:04:35;4.18;;;2.58;;
37805;SDS011;25082;50.870;0.022;2022-09-13T04:07:02;4.50;;;2.60;;
37805;SDS011;25082;50.870;0.022;2022-09-13T04:09:29;2.55;;;2.03;;
37805;SDS011;25082;50.870;0.022;2022-09-13T04:11:55;3.85;;;2.55;;
37805;SDS011;25082;50.870;0.022;2022-09-13T04:14:21;3.40;;;2.05;;
37805;SDS011;25082;50.870;0.022;2022-09-13T04:16:50;3.97;;;2.63;;
37805;SDS011;25082;50.870;0.022;2022-09-13T04:19:20;4.32;;;2.58;;
37805;SDS011;25082;50.870;0.022;2022-09-13T04:21:47;4.97;;;2.40;;
37805;SDS011;25082;50.870;0.022;2022-09-13T04:24:14;3.63;;;2.30;;
37805;SDS011;25082;50.870;0.022;2022-09-13T04:26:40;4.05;;;2.67;;
37805;SDS011;25082;50.870;0.022;2022-09-13T04:29:05;2.60;;;2.35;;
37805;SDS011;25082;50.870;0.022;2022-09-13T04:31:31;3.25;;;2.30;;
37805;SDS011;25082;50.870;0.022;2022-09-13T04:33:57;4.03;;;2.70;;
37805;SDS011;25082;50.870;0.022;2022-09-13T04:36:24;4.43;;;2.50;;
37805;SDS011;25082;50.870;0.022;2022-09-13T04:38:50;4.38;;;2.55;;
37805;SDS011;25082;50.870;0.022;2022-09-13T04:41:16;5.88;;;2.97;;
37805;SDS011;25082;50.870;0.022;2022-09-13T04:43:42;4.00;;;2.35;;
37805;SDS011;25082;50.870;0.022;2022-09-13T04:46:08;5.35;;;2.42;;
37805;SDS011;25082;50.870;0.022;2022-09-13T04:48:33;3.90;;;2.40;;
37805;SDS011;25082;50.870;0.022;2022-09-13T04:51:03;4.03;;;2.60;;
37805;SDS011;25082;50.870;0.022;2022-09-13T04:53:29;4.75;;;2.60;;
37805;SDS011;25082;50.870;0.022;2022-09-13T04:56:02;3.80;;;2.13;;
37805;SDS011;25082;50.870;0.022;2022-09-13T04:58:29;3.90;;;2.78;;
37805;SDS011;25082;50.870;0.022;2022-09-13T05:01:02;3.90;;;2.67;;
37805;SDS011;25082;50.870;0.022;2022-09-13T05:03:32;3.80;;;2.50;;
37805;SDS011;25082;50.870;0.022;2022-09-13T05:06:06;4.60;;;2.58;;
37805;SDS011;25082;50.870;0.022;2022-09-13T05:08:36;7.38;;;2.85;;
37805;SDS011;25082;50.870;0.022;2022-09-13T05:11:02;2.95;;;2.20;;
37805;SDS011;25082;50.870;0.022;2022-09-13T05:13:29;3.83;;;2.40;;
37805;SDS011;25082;50.870;0.022;2022-09-13T05:15:56;4.15;;;2.50;;
37805;SDS011;25082;50.870;0.022;2022-09-13T05:18:24;2.78;;;2.10;;
37805;SDS011;25082;50.870;0.022;2022-09-13T05:20:54;4.18;;;2.78;;
37805;SDS011;25082;50.870;0.022;2022-09-13T05:23:21;4.35;;;2.20;;
37805;SDS011;25082;50.870;0.022;2022-09-13T05:26:00;3.95;;;2.63;;
37805;SDS011;25082;50.870;0.022;2022-09-13T05:28:29;3.95;;;2.30;;
37805;SDS011;25082;50.870;0.022;2022-09-13T05:33:26;4.60;;;2.63;;
37805;SDS011;25082;50.870;0.022;2022-09-13T05:35:53;4.03;;;2.63;;
37805;SDS011;25082;50.870;0.022;2022-09-13T05:38:19;4.40;;;2.28;;
37805;SDS011;25082;50.870;0.022;2022-09-13T05:40:45;3.75;;;2.55;;
37805;SDS011;25082;50.870;0.022;2022-09-13T05:43:11;5.32;;;2.83;;
37805;SDS011;25082;50.870;0.022;2022-09-13T05:45:37;3.67;;;2.40;;
37805;SDS011;25082;50.870;0.022;2022-09-13T05:48:04;3.05;;;2.17;;
37805;SDS011;25082;50.870;0.022;2022-09-13T05:50:29;3.83;;;2.30;;
37805;SDS011;25082;50.870;0.022;2022-09-13T05:52:55;2.97;;;2.20;;
37805;SDS011;25082;50.870;0.022;2022-09-13T05:55:21;4.68;;;2.65;;
37805;SDS011;25082;50.870;0.022;2022-09-13T05:57:47;3.67;;;2.42;;
37805;SDS011;25082;50.870;0.022;2022-09-13T06:00:14;6.30;;;2.53;;
37805;SDS011;25082;50.870;0.022;2022-09-13T06:02:41;3.85;;;2.72;;
37805;SDS011;25082;50.870;0.022;2022-09-13T06:05:07;4.15;;;3.00;;
37805;SDS011;25082;50.870;0.022;2022-09-13T06:07:34;3.63;;;2.33;;
37805;SDS011;25082;50.870;0.022;2022-09-13T06:10:01;4.50;;;2.47;;
37805;SDS011;25082;50.870;0.022;2022-09-13T06:12:28;5.30;;;3.13;;
37805;SDS011;25082;50.870;0.022;2022-09-13T06:14:54;3.25;;;2.70;;
37805;SDS011;25082;50.870;0.022;2022-09-13T06:17:20;4.70;;;2.92;;
37805;SDS011;25082;50.870;0.022;2022-09-13T06:19:46;2.78;;;2.38;;
37805;SDS011;25082;50.870;0.022;2022-09-13T06:22:12;7.20;;;3.00;;
37805;SDS011;25082;50.870;0.022;2022-09-13T06:24:37;4.10;;;2.80;;
37805;SDS011;25082;50.870;0.022;2022-09-13T06:27:03;4.50;;;3.13;;
37805;SDS011;25082;50.870;0.022;2022-09-13T06:29:29;4.10;;;2.80;;
37805;SDS011;25082;50.870;0.022;2022-09-13T06:31:55;3.13;;;2.42;;
37805;SDS011;25082;50.870;0.022;2022-09-13T06:34:22;3.97;;;3.08;;
37805;SDS011;25082;50.870;0.022;2022-09-13T06:36:47;3.95;;;2.92;;
37805;SDS011;25082;50.870;0.022;2022-09-13T06:39:13;4.13;;;3.20;;
37805;SDS011;25082;50.870;0.022;2022-09-13T06:41:39;3.28;;;2.85;;
37805;SDS011;25082;50.870;0.022;2022-09-13T06:44:05;3.53;;;2.65;;
37805;SDS011;25082;50.870;0.022;2022-09-13T06:46:32;5.10;;;2.95;;
37805;SDS011;25082;50.870;0.022;2022-09-13T06:48:59;3.72;;;3.15;;
37805;SDS011;25082;50.870;0.022;2022-09-13T06:51:27;5.55;;;3.00;;
37805;SDS011;25082;50.870;0.022;2022-09-13T06:53:54;6.22;;;2.40;;
37805;SDS011;25082;50.870;0.022;2022-09-13T06:56:24;3.60;;;2.90;;
37805;SDS011;25082;50.870;0.022;2022-09-13T06:58:58;4.95;;;2.83;;
37805;SDS011;25082;50.870;0.022;2022-09-13T07:01:26;4.78;;;3.28;;
37805;SDS011;25082;50.870;0.022;2022-09-13T07:03:58;3.72;;;3.17;;
37805;SDS011;25082;50.870;0.022;2022-09-13T07:06:29;5.00;;;3.20;;
37805;SDS011;25082;50.870;0.022;2022-09-13T07:08:58;3.38;;;2.80;;
37805;SDS011;25082;50.870;0.022;2022-09-13T07:11:25;4.32;;;3.05;;
37805;SDS011;25082;50.870;0.022;2022-09-13T07:13:54;3.75;;;3.30;;
37805;SDS011;25082;50.870;0.022;2022-09-13T07:16:22;4.40;;;2.70;;
37805;SDS011;25082;50.870;0.022;2022-09-13T07:18:50;4.22;;;3.17;;
37805;SDS011;25082;50.870;0.022;2022-09-13T07:21:20;3.90;;;3.38;;
37805;SDS011;25082;50.870;0.022;2022-09-13T07:23:47;3.78;;;3.00;;
37805;SDS011;25082;50.870;0.022;2022-09-13T07:26:13;3.90;;;2.92;;
37805;SDS011;25082;50.870;0.022;2022-09-13T07:28:40;4.57;;;3.53;;
37805;SDS011;25082;50.870;0.022;2022-09-13T07:31:11;3.65;;;2.58;;
37805;SDS011;25082;50.870;0.022;2022-09-13T07:33:37;5.00;;;3.22;;
37805;SDS011;25082;50.870;0.022;2022-09-13T07:36:04;4.30;;;2.85;;
37805;SDS011;25082;50.870;0.022;2022-09-13T07:38:34;5.05;;;3.47;;
37805;SDS011;25082;50.870;0.022;2022-09-13T07:41:01;4.72;;;3.20;;
37805;SDS011;25082;50.870;0.022;2022-09-13T07:43:30;4.72;;;3.40;;
37805;SDS011;25082;50.870;0.022;2022-09-13T07:45:58;4.10;;;3.33;;
37805;SDS011;25082;50.870;0.022;2022-09-13T07:48:25;5.53;;;3.70;;
37805;SDS011;25082;50.870;0.022;2022-09-13T07:50:56;4.70;;;3.53;;
37805;SDS011;25082;50.870;0.022;2022-09-13T07:53:25;5.10;;;3.47;;
37805;SDS011;25082;50.870;0.022;2022-09-13T07:55:52;4.07;;;2.83;;
37805;SDS011;25082;50.870;0.022;2022-09-13T07:58:18;4.60;;;3.47;;
37805;SDS011;25082;50.870;0.022;2022-09-13T08:00:44;4.07;;;3.40;;
37805;SDS011;25082;50.870;0.022;2022-09-13T08:03:10;6.15;;;4.30;;
37805;SDS011;25082;50.870;0.022;2022-09-13T08:05:39;4.03;;;3.53;;
37805;SDS011;25082;50.870;0.022;2022-09-13T08:08:05;6.80;;;4.05;;
37805;SDS011;25082;50.870;0.022;2022-09-13T08:10:32;5.00;;;3.88;;
37805;SDS011;25082;50.870;0.022;2022-09-13T08:12:58;4.72;;;3.92;;
37805;SDS011;25082;50.870;0.022;2022-09-13T08:15:24;4.88;;;3.65;;
37805;SDS011;25082;50.870;0.022;2022-09-13T08:17:50;4.00;;;3.30;;
37805;SDS011;25082;50.870;0.022;2022-09-13T08:20:18;4.43;;;3.58;;
37805;SDS011;25082;50.870;0.022;2022-09-13T08:22:44;5.07;;;3.78;;
37805;SDS011;25082;50.870;0.022;2022-09-13T08:25:10;5.18;;;3.83;;
37805;SDS011;25082;50.870;0.022;2022-09-13T08:27:36;4.05;;;3.30;;
37805;SDS011;25082;50.870;0.022;2022-09-13T08:30:02;4.43;;;3.72;;
37805;SDS011;25082;50.870;0.022;2022-09-13T08:32:29;4.57;;;3.38;;
37805;SDS011;25082;50.870;0.022;2022-09-13T08:34:55;3.45;;;3.05;;
37805;SDS011;25082;50.870;0.022;2022-09-13T08:37:20;4.38;;;3.50;;
37805;SDS011;25082;50.870;0.022;2022-09-13T08:39:46;3.63;;;3.15;;
37805;SDS011;25082;50.870;0.022;2022-09-13T08:44:49;4.30;;;3.40;;
37805;SDS011;25082;50.870;0.022;2022-09-13T08:50:35;4.70;;;3.60;;
37805;SDS011;25082;50.870;0.022;2022-09-13T08:58:18;5.68;;;3.78;;
37805;SDS011;25082;50.870;0.022;2022-09-13T09:00:50;4.40;;;3.50;;
37805;SDS011;25082;50.870;0.022;2022-09-13T09:04:01;4.43;;;3.22;;
37805;SDS011;25082;50.870;0.022;2022-09-13T09:06:36;4.80;;;3.42;;
37805;SDS011;25082;50.870;0.022;2022-09-13T09:09:03;3.63;;;3.28;;
37805;SDS011;25082;50.870;0.022;2022-09-13T09:11:51;3.20;;;2.90;;
37805;SDS011;25082;50.870;0.022;2022-09-13T09:14:34;4.15;;;3.45;;
37805;SDS011;25082;50.870;0.022;2022-09-13T09:17:10;4.10;;;3.17;;
37805;SDS011;25082;50.870;0.022;2022-09-13T09:19:48;3.70;;;3.25;;
37805;SDS011;25082;50.870;0.022;2022-09-13T09:22:19;3.10;;;2.78;;
37805;SDS011;25082;50.870;0.022;2022-09-13T09:24:49;3.80;;;2.83;;
37805;SDS011;25082;50.870;0.022;2022-09-13T09:27:18;5.20;;;2.85;;
37805;SDS011;25082;50.870;0.022;2022-09-13T09:29:46;4.70;;;3.20;;
37805;SDS011;25082;50.870;0.022;2022-09-13T09:41:24;3.78;;;3.22;;
37805;SDS011;25082;50.870;0.022;2022-09-13T09:44:33;5.07;;;3.20;;
37805;SDS011;25082;50.870;0.022;2022-09-13T09:47:03;4.30;;;3.63;;
37805;SDS011;25082;50.870;0.022;2022-09-13T09:58:37;5.30;;;3.33;;
37805;SDS011;25082;50.870;0.022;2022-09-13T10:04:05;4.45;;;3.08;;
37805;SDS011;25082;50.870;0.022;2022-09-13T10:06:36;3.08;;;2.58;;
37805;SDS011;25082;50.870;0.022;2022-09-13T10:14:26;3.53;;;2.72;;
37805;SDS011;25082;50.870;0.022;2022-09-13T10:19:51;3.60;;;3.13;;
37805;SDS011;25082;50.870;0.022;2022-09-13T10:22:25;3.22;;;2.47;;
37805;SDS011;25082;50.870;0.022;2022-09-13T10:24:52;3.03;;;2.53;;
37805;SDS011;25082;50.870;0.022;2022-09-13T10:27:31;4.57;;;2.88;;
37805;SDS011;25082;50.870;0.022;2022-09-13T10:29:59;3.35;;;2.55;;
37805;SDS011;25082;50.870;0.022;2022-09-13T10:32:30;3.92;;;2.60;;
37805;SDS011;25082;50.870;0.022;2022-09-13T10:35:07;4.03;;;2.63;;
37805;SDS011;25082;50.870;0.022;2022-09-13T10:37:42;6.47;;;2.53;;
37805;SDS011;25082;50.870;0.022;2022-09-13T10:40:22;5.13;;;2.63;;
37805;SDS011;25082;50.870;0.022;2022-09-13T10:42:49;3.15;;;2.40;;
37805;SDS011;25082;50.870;0.022;2022-09-13T10:45:20;3.80;;;2.70;;
37805;SDS011;25082;50.870;0.022;2022-09-13T10:47:49;3.03;;;2.72;;
37805;SDS011;25082;50.870;0.022;2022-09-13T10:50:21;2.50;;;2.30;;
37805;SDS011;25082;50.870;0.022;2022-09-13T10:52:49;2.90;;;2.38;;
37805;SDS011;25082;50.870;0.022;2022-09-13T10:57:44;2.47;;;2.28;;
37805;SDS011;25082;50.870;0.022;2022-09-13T11:00:12;3.45;;;2.53;;
37805;SDS011;25082;50.870;0.022;2022-09-13T11:05:42;6.18;;;2.95;;
37805;SDS011;25082;50.870;0.022;2022-09-13T11:16:55;5.97;;;2.50;;
37805;SDS011;25082;50.870;0.022;2022-09-13T11:39:13;4.32;;;2.25;;
37805;SDS011;25082;50.870;0.022;2022-09-13T11:47:54;4.20;;;2.38;;
37805;SDS011;25082;50.870;0.022;2022-09-13T11:50:28;3.85;;;2.13;;
37805;SDS011;25082;50.870;0.022;2022-09-13T11:56:40;3.58;;;2.50;;
37805;SDS011;25082;50.870;0.022;2022-09-13T12:07:36;4.45;;;2.50;;
37805;SDS011;25082;50.870;0.022;2022-09-13T12:10:12;5.40;;;2.30;;
37805;SDS011;25082;50.870;0.022;2022-09-13T12:12:42;3.28;;;2.42;;
37805;SDS011;25082;50.870;0.022;2022-09-13T12:15:15;2.60;;;1.90;;
37805;SDS011;25082;50.870;0.022;2022-09-13T12:17:48;5.70;;;2.70;;
37805;SDS011;25082;50.870;0.022;2022-09-13T12:23:11;3.28;;;2.00;;
37805;SDS011;25082;50.870;0.022;2022-09-13T12:28:45;3.25;;;2.13;;
37805;SDS011;25082;50.870;0.022;2022-09-13T12:31:16;4.82;;;2.80;;
37805;SDS011;25082;50.870;0.022;2022-09-13T12:33:46;2.13;;;1.92;;
37805;SDS011;25082;50.870;0.022;2022-09-13T12:36:20;2.72;;;2.22;;
37805;SDS011;25082;50.870;0.022;2022-09-13T12:52:39;4.07;;;2.85;;
37805;SDS011;25082;50.870;0.022;2022-09-13T13:01:25;2.65;;;2.17;;
37805;SDS011;25082;50.870;0.022;2022-09-13T13:04:02;2.97;;;2.67;;
37805;SDS011;25082;50.870;0.022;2022-09-13T13:09:22;4.38;;;2.55;;
37805;SDS011;25082;50.870;0.022;2022-09-13T13:14:59;4.13;;;2.60;;
37805;SDS011;25082;50.870;0.022;2022-09-13T13:17:47;2.83;;;2.30;;
37805;SDS011;25082;50.870;0.022;2022-09-13T13:23:19;3.30;;;2.35;;
37805;SDS011;25082;50.870;0.022;2022-09-13T13:36:31;3.40;;;3.10;;
37805;SDS011;25082;50.870;0.022;2022-09-13T13:55:04;2.95;;;2.55;;
37805;SDS011;25082;50.870;0.022;2022-09-13T14:00:22;2.70;;;2.10;;
37805;SDS011;25082;50.870;0.022;2022-09-13T14:05:21;6.75;;;3.00;;
37805;SDS011;25082;50.870;0.022;2022-09-13T14:24:39;2.90;;;2.35;;
37805;SDS011;25082;50.870;0.022;2022-09-13T14:27:12;3.13;;;2.38;;
37805;SDS011;25082;50.870;0.022;2022-09-13T14:29:46;4.07;;;2.40;;
37805;SDS011;25082;50.870;0.022;2022-09-13T14:32:22;4.95;;;2.42;;
37805;SDS011;25082;50.870;0.022;2022-09-13T14:34:51;2.72;;;2.13;;
37805;SDS011;25082;50.870;0.022;2022-09-13T14:37:27;3.42;;;2.60;;
37805;SDS011;25082;50.870;0.022;2022-09-13T14:42:41;2.47;;;2.22;;
37805;SDS011;25082;50.870;0.022;2022-09-13T14:45:15;2.40;;;2.20;;
37805;SDS011;25082;50.870;0.022;2022-09-13T14:47:49;4.45;;;2.38;;
37805;SDS011;25082;50.870;0.022;2022-09-13T14:50:23;2.75;;;2.35;;
37805;SDS011;25082;50.870;0.022;2022-09-13T14:53:02;2.92;;;2.25;;
37805;SDS011;25082;50.870;0.022;2022-09-13T14:55:32;2.92;;;2.60;;
37805;SDS011;25082;50.870;0.022;2022-09-13T14:58:05;2.78;;;2.28;;
37805;SDS011;25082;50.870;0.022;2022-09-13T15:00:44;3.55;;;2.60;;
37805;SDS011;25082;50.870;0.022;2022-09-13T15:03:14;2.55;;;2.20;;
37805;SDS011;25082;50.870;0.022;2022-09-13T15:05:48;3.28;;;2.28;;
37805;SDS011;25082;50.870;0.022;2022-09-13T15:10:57;2.22;;;1.92;;
37805;SDS011;25082;50.870;0.022;2022-09-13T15:13:24;3.42;;;2.20;;
37805;SDS011;25082;50.870;0.022;2022-09-13T15:15:50;5.55;;;2.53;;
37805;SDS011;25082;50.870;0.022;2022-09-13T15:20:52;3.72;;;2.67;;
37805;SDS011;25082;50.870;0.022;2022-09-13T15:28:52;2.60;;;2.03;;
37805;SDS011;25082;50.870;0.022;2022-09-13T15:31:26;2.63;;;2.03;;
37805;SDS011;25082;50.870;0.022;2022-09-13T15:36:40;3.67;;;2.08;;
37805;SDS011;25082;50.870;0.022;2022-09-13T15:41:33;3.28;;;2.05;;
37805;SDS011;25082;50.870;0.022;2022-09-13T15:44:01;4.10;;;2.10;;
37805;SDS011;25082;50.870;0.022;2022-09-13T15:46:29;4.30;;;2.50;;
37805;SDS011;25082;50.870;0.022;2022-09-13T15:48:56;1.98;;;1.77;;
37805;SDS011;25082;50.870;0.022;2022-09-13T15:51:24;1.95;;;1.75;;
37805;SDS011;25082;50.870;0.022;2022-09-13T15:53:50;4.40;;;1.92;;
37805;SDS011;25082;50.870;0.022;2022-09-13T15:56:49;3.50;;;1.88;;
37805;SDS011;25082;50.870;0.022;2022-09-13T15:59:13;2.20;;;1.83;;
37805;SDS011;25082;50.870;0.022;2022-09-13T16:01:41;4.32;;;2.22;;
37805;SDS011;25082;50.870;0.022;2022-09-13T16:04:07;2.47;;;1.70;;
37805;SDS011;25082;50.870;0.022;2022-09-13T16:06:33;2.20;;;1.80;;
37805;SDS011;25082;50.870;0.022;2022-09-13T16:09:00;2.30;;;2.10;;
37805;SDS011;25082;50.870;0.022;2022-09-13T16:11:26;2.60;;;1.95;;
37805;SDS011;25082;50.870;0.022;2022-09-13T16:13:52;2.08;;;1.80;;
37805;SDS011;25082;50.870;0.022;2022-09-13T16:16:18;3.22;;;1.92;;
37805;SDS011;25082;50.870;0.022;2022-09-13T16:18:44;2.42;;;2.03;;
37805;SDS011;25082;50.870;0.022;2022-09-13T16:21:09;2.45;;;1.92;;
37805;SDS011;25082;50.870;0.022;2022-09-13T16:23:35;2.55;;;1.73;;
37805;SDS011;25082;50.870;0.022;2022-09-13T16:26:01;3.53;;;1.92;;
37805;SDS011;25082;50.870;0.022;2022-09-13T16:28:29;2.22;;;1.63;;
37805;SDS011;25082;50.870;0.022;2022-09-13T16:30:55;2.33;;;1.83;;
37805;SDS011;25082;50.870;0.022;2022-09-13T16:33:21;3.00;;;2.10;;
37805;SDS011;25082;50.870;0.022;2022-09-13T16:35:46;3.42;;;1.92;;
37805;SDS011;25082;50.870;0.022;2022-09-13T16:38:12;1.70;;;1.58;;
37805;SDS011;25082;50.870;0.022;2022-09-13T16:40:39;4.00;;;2.03;;
37805;SDS011;25082;50.870;0.022;2022-09-13T16:43:05;1.67;;;1.58;;
37805;SDS011;25082;50.870;0.022;2022-09-13T16:45:32;3.15;;;1.67;;
37805;SDS011;25082;50.870;0.022;2022-09-13T16:47:57;3.03;;;1.67;;
37805;SDS011;25082;50.870;0.022;2022-09-13T16:50:23;3.90;;;1.70;;
37805;SDS011;25082;50.870;0.022;2022-09-13T16:52:49;2.40;;;1.40;;
37805;SDS011;25082;50.870;0.022;2022-09-13T16:55:15;2.83;;;1.77;;
37805;SDS011;25082;50.870;0.022;2022-09-13T16:57:40;3.42;;;2.03;;
37805;SDS011;25082;50.870;0.022;2022-09-13T17:00:08;5.70;;;1.60;;
37805;SDS011;25082;50.870;0.022;2022-09-13T17:02:36;1.70;;;1.58;;
37805;SDS011;25082;50.870;0.022;2022-09-13T17:05:02;1.92;;;1.58;;
37805;SDS011;25082;50.870;0.022;2022-09-13T17:07:31;3.00;;;1.65;;
37805;SDS011;25082;50.870;0.022;2022-09-13T17:09:58;3.05;;;2.10;;
37805;SDS011;25082;50.870;0.022;2022-09-13T17:12:24;1.92;;;1.25;;
37805;SDS011;25082;50.870;0.022;2022-09-13T17:14:50;1.60;;;1.50;;
37805;SDS011;25082;50.870;0.022;2022-09-13T17:17:15;2.42;;;1.42;;
37805;SDS011;25082;50.870;0.022;2022-09-13T17:19:42;2.65;;;1.42;;
37805;SDS011;25082;50.870;0.022;2022-09-13T17:22:09;1.60;;;1.35;;
37805;SDS011;25082;50.870;0.022;2022-09-13T17:24:35;3.30;;;1.55;;
37805;SDS011;25082;50.870;0.022;2022-09-13T17:27:02;2.72;;;1.40;;
37805;SDS011;25082;50.870;0.022;2022-09-13T17:29:30;1.98;;;1.30;;
37805;SDS011;25082;50.870;0.022;2022-09-13T17:31:57;2.90;;;1.70;;
37805;SDS011;25082;50.870;0.022;2022-09-13T17:34:24;2.65;;;1.50;;
37805;SDS011;25082;50.870;0.022;2022-09-13T17:36:50;2.30;;;1.33;;
37805;SDS011;25082;50.870;0.022;2022-09-13T17:39:16;3.42;;;1.50;;
37805;SDS011;25082;50.870;0.022;2022-09-13T17:41:43;5.43;;;1.50;;
37805;SDS011;25082;50.870;0.022;2022-09-13T17:44:08;1.75;;;1.50;;
37805;SDS011;25082;50.870;0.022;2022-09-13T17:46:36;2.50;;;1.48;;
37805;SDS011;25082;50.870;0.022;2022-09-13T17:49:02;1.67;;;1.15;;
37805;SDS011;25082;50.870;0.022;2022-09-13T17:51:28;2.40;;;1.48;;
37805;SDS011;25082;50.870;0.022;2022-09-13T17:53:58;2.65;;;1.38;;
37805;SDS011;25082;50.870;0.022;2022-09-13T17:56:30;1.75;;;1.40;;
37805;SDS011;25082;50.870;0.022;2022-09-13T17:59:07;1.67;;;1.10;;
37805;SDS011;25082;50.870;0.022;2022-09-13T18:01:39;2.45;;;1.40;;
37805;SDS011;25082;50.870;0.022;2022-09-13T18:04:09;1.95;;;1.30;;
37805;SDS011;25082;50.870;0.022;2022-09-13T18:06:37;1.48;;;1.30;;
37805;SDS011;25082;50.870;0.022;2022-09-13T18:09:10;2.20;;;1.20;;
37805;SDS011;25082;50.870;0.022;2022-09-13T18:11:38;1.58;;;1.30;;
37805;SDS011;25082;50.870;0.022;2022-09-13T18:14:04;2.08;;;1.40;;
37805;SDS011;25082;50.870;0.022;2022-09-13T18:16:31;3.53;;;1.45;;
37805;SDS011;25082;50.870;0.022;2022-09-13T18:18:57;2.15;;;1.30;;
37805;SDS011;25082;50.870;0.022;2022-09-13T18:21:24;1.80;;;1.30;;
37805;SDS011;25082;50.870;0.022;2022-09-13T18:23:52;4.65;;;1.90;;
37805;SDS011;25082;50.870;0.022;2022-09-13T18:26:23;2.15;;;1.40;;
37805;SDS011;25082;50.870;0.022;2022-09-13T18:28:57;2.42;;;1.25;;
37805;SDS011;25082;50.870;0.022;2022-09-13T18:31:25;2.50;;;1.55;;
37805;SDS011;25082;50.870;0.022;2022-09-13T18:33:53;1.38;;;0.98;;
37805;SDS011;25082;50.870;0.022;2022-09-13T18:38:50;2.30;;;1.27;;
37805;SDS011;25082;50.870;0.022;2022-09-13T18:41:24;1.20;;;1.10;;
37805;SDS011;25082;50.870;0.022;2022-09-13T18:43:52;2.72;;;1.15;;
37805;SDS011;25082;50.870;0.022;2022-09-13T18:46:20;2.55;;;1.52;;
37805;SDS011;25082;50.870;0.022;2022-09-13T18:48:49;2.08;;;1.20;;
37805;SDS011;25082;50.870;0.022;2022-09-13T18:51:19;2.50;;;1.38;;
37805;SDS011;25082;50.870;0.022;2022-09-13T18:53:46;1.38;;;0.93;;
37805;SDS011;25082;50.870;0.022;2022-09-13T18:56:13;2.38;;;1.00;;
37805;SDS011;25082;50.870;0.022;2022-09-13T18:58:42;2.30;;;1.20;;
37805;SDS011;25082;50.870;0.022;2022-09-13T19:01:15;1.83;;;1.08;;
37805;SDS011;25082;50.870;0.022;2022-09-13T19:03:46;3.42;;;1.13;;
37805;SDS011;25082;50.870;0.022;2022-09-13T19:06:19;2.40;;;1.35;;
37805;SDS011;25082;50.870;0.022;2022-09-13T19:08:47;2.85;;;1.77;;
37805;SDS011;25082;50.870;0.022;2022-09-13T19:11:15;1.98;;;1.55;;
37805;SDS011;25082;50.870;0.022;2022-09-13T19:13:42;2.42;;;1.08;;
37805;SDS011;25082;50.870;0.022;2022-09-13T19:16:10;2.13;;;1.23;;
37805;SDS011;25082;50.870;0.022;2022-09-13T19:18:38;2.08;;;1.20;;
37805;SDS011;25082;50.870;0.022;2022-09-13T19:21:07;1.60;;;1.10;;